sensor_id;sensor_type;location;lat;lon;timestamp;P1;durP1;ratioP1;P2;durP2;ratioP2
28934;SDS011;16044;52.726;-2.108;2023-03-31T00:00:46;13.93;;;2.58;;
28934;SDS011;16044;52.726;-2.108;2023-03-31T00:03:18;15.20;;;2.80;;
28934;SDS011;16044;52.726;-2.108;2023-03-31T00:05:56;15.88;;;2.70;;
28934;SDS011;16044;52.726;-2.108;2023-03-31T00:08:25;21.20;;;2.92;;
28934;SDS011;16044;52.726;-2.108;2023-03-31T00:10:59;20.38;;;2.63;;
28934;SDS011;16044;52.726;-2.108;2023-03-31T00:13:26;16.90;;;2.75;;
28934;SDS011;16044;52.726;-2.108;2023-03-31T00:16:00;17.55;;;2.85;;
28934;SDS011;16044;52.726;-2.108;2023-03-31T00:18:32;13.45;;;2.40;;
28934;SDS011;16044;52.726;-2.108;2023-03-31T00:21:07;13.43;;;2.85;;
28934;SDS011;16044;52.726;-2.108;2023-03-31T00:23:54;17.02;;;2.95;;
28934;SDS011;16044;52.726;-2.108;2023-03-31T00:26:27;18.05;;;3.13;;
28934;SDS011;16044;52.726;-2.108;2023-03-31T00:28:56;14.02;;;2.90;;
28934;SDS011;16044;52.726;-2.108;2023-03-31T00:31:25;17.02;;;3.15;;
28934;SDS011;16044;52.726;-2.108;2023-03-31T00:33:53;11.30;;;2.60;;
28934;SDS011;16044;52.726;-2.108;2023-03-31T00:36:22;12.20;;;2.60;;
28934;SDS011;16044;52.726;-2.108;2023-03-31T00:38:53;13.05;;;1.90;;
28934;SDS011;16044;52.726;-2.108;2023-03-31T00:41:26;14.90;;;2.05;;
28934;SDS011;16044;52.726;-2.108;2023-03-31T00:49:38;18.05;;;2.47;;
28934;SDS011;16044;52.726;-2.108;2023-03-31T00:54:45;10.68;;;2.22;;
28934;SDS011;16044;52.726;-2.108;2023-03-31T00:57:17;15.80;;;2.13;;
28934;SDS011;16044;52.726;-2.108;2023-03-31T00:59:45;12.32;;;2.15;;
28934;SDS011;16044;52.726;-2.108;2023-03-31T01:02:16;9.98;;;2.30;;
28934;SDS011;16044;52.726;-2.108;2023-03-31T01:04:47;17.10;;;2.53;;
28934;SDS011;16044;52.726;-2.108;2023-03-31T01:10:09;16.52;;;3.05;;
28934;SDS011;16044;52.726;-2.108;2023-03-31T01:12:38;14.13;;;2.63;;
28934;SDS011;16044;52.726;-2.108;2023-03-31T01:15:08;16.08;;;2.95;;
28934;SDS011;16044;52.726;-2.108;2023-03-31T01:17:36;14.52;;;2.40;;
28934;SDS011;16044;52.726;-2.108;2023-03-31T01:35:42;20.35;;;3.47;;
28934;SDS011;16044;52.726;-2.108;2023-03-31T01:41:51;21.63;;;3.72;;
28934;SDS011;16044;52.726;-2.108;2023-03-31T01:47:32;13.45;;;2.83;;
28934;SDS011;16044;52.726;-2.108;2023-03-31T01:50:17;17.33;;;3.17;;
28934;SDS011;16044;52.726;-2.108;2023-03-31T01:58:11;13.93;;;2.63;;
28934;SDS011;16044;52.726;-2.108;2023-03-31T02:00:57;14.73;;;2.50;;
28934;SDS011;16044;52.726;-2.108;2023-03-31T02:03:36;12.70;;;2.50;;
28934;SDS011;16044;52.726;-2.108;2023-03-31T02:06:13;15.00;;;2.35;;
28934;SDS011;16044;52.726;-2.108;2023-03-31T02:08:48;11.35;;;2.50;;
28934;SDS011;16044;52.726;-2.108;2023-03-31T02:11:22;14.98;;;2.72;;
28934;SDS011;16044;52.726;-2.108;2023-03-31T02:13:52;10.05;;;2.33;;
28934;SDS011;16044;52.726;-2.108;2023-03-31T02:16:25;11.20;;;2.22;;
28934;SDS011;16044;52.726;-2.108;2023-03-31T02:18:54;11.52;;;2.20;;
28934;SDS011;16044;52.726;-2.108;2023-03-31T02:21:34;8.95;;;1.88;;
28934;SDS011;16044;52.726;-2.108;2023-03-31T02:24:07;10.75;;;2.00;;
28934;SDS011;16044;52.726;-2.108;2023-03-31T02:26:45;8.65;;;2.20;;
28934;SDS011;16044;52.726;-2.108;2023-03-31T02:29:33;11.03;;;1.90;;
28934;SDS011;16044;52.726;-2.108;2023-03-31T02:32:03;7.57;;;1.65;;
28934;SDS011;16044;52.726;-2.108;2023-03-31T02:34:38;9.73;;;2.17;;
28934;SDS011;16044;52.726;-2.108;2023-03-31T02:37:05;6.43;;;1.40;;
28934;SDS011;16044;52.726;-2.108;2023-03-31T02:39:34;7.68;;;1.80;;
28934;SDS011;16044;52.726;-2.108;2023-03-31T02:42:04;6.28;;;1.50;;
28934;SDS011;16044;52.726;-2.108;2023-03-31T02:44:34;7.28;;;2.05;;
28934;SDS011;16044;52.726;-2.108;2023-03-31T02:47:05;8.43;;;1.80;;
28934;SDS011;16044;52.726;-2.108;2023-03-31T02:49:37;4.32;;;1.40;;
28934;SDS011;16044;52.726;-2.108;2023-03-31T02:55:19;5.97;;;1.40;;
28934;SDS011;16044;52.726;-2.108;2023-03-31T03:01:05;3.95;;;1.10;;
28934;SDS011;16044;52.726;-2.108;2023-03-31T03:07:07;5.17;;;1.33;;
28934;SDS011;16044;52.726;-2.108;2023-03-31T03:15:19;6.00;;;1.58;;
28934;SDS011;16044;52.726;-2.108;2023-03-31T03:17:52;7.57;;;2.10;;
28934;SDS011;16044;52.726;-2.108;2023-03-31T03:20:20;7.28;;;2.58;;
28934;SDS011;16044;52.726;-2.108;2023-03-31T03:22:47;8.25;;;2.20;;
28934;SDS011;16044;52.726;-2.108;2023-03-31T03:25:14;8.93;;;2.55;;
28934;SDS011;16044;52.726;-2.108;2023-03-31T03:27:46;11.27;;;2.88;;
28934;SDS011;16044;52.726;-2.108;2023-03-31T03:30:13;7.25;;;2.65;;
28934;SDS011;16044;52.726;-2.108;2023-03-31T03:32:40;9.82;;;2.10;;
28934;SDS011;16044;52.726;-2.108;2023-03-31T03:35:08;11.40;;;2.78;;
28934;SDS011;16044;52.726;-2.108;2023-03-31T03:37:36;10.50;;;2.38;;
28934;SDS011;16044;52.726;-2.108;2023-03-31T03:40:03;9.68;;;2.58;;
28934;SDS011;16044;52.726;-2.108;2023-03-31T03:42:32;8.68;;;2.60;;
28934;SDS011;16044;52.726;-2.108;2023-03-31T03:45:00;8.55;;;2.65;;
28934;SDS011;16044;52.726;-2.108;2023-03-31T03:47:28;9.65;;;2.70;;
28934;SDS011;16044;52.726;-2.108;2023-03-31T03:49:55;6.40;;;2.20;;
28934;SDS011;16044;52.726;-2.108;2023-03-31T03:52:22;11.80;;;2.80;;
28934;SDS011;16044;52.726;-2.108;2023-03-31T03:54:49;7.20;;;2.33;;
28934;SDS011;16044;52.726;-2.108;2023-03-31T03:57:15;7.15;;;2.10;;
28934;SDS011;16044;52.726;-2.108;2023-03-31T03:59:42;6.40;;;1.83;;
28934;SDS011;16044;52.726;-2.108;2023-03-31T04:02:09;7.00;;;2.03;;
28934;SDS011;16044;52.726;-2.108;2023-03-31T04:04:37;7.90;;;2.25;;
28934;SDS011;16044;52.726;-2.108;2023-03-31T04:07:04;6.85;;;1.98;;
28934;SDS011;16044;52.726;-2.108;2023-03-31T04:09:31;7.15;;;1.92;;
28934;SDS011;16044;52.726;-2.108;2023-03-31T04:11:58;10.90;;;2.20;;
28934;SDS011;16044;52.726;-2.108;2023-03-31T04:14:25;11.60;;;2.95;;
28934;SDS011;16044;52.726;-2.108;2023-03-31T04:16:52;13.32;;;2.35;;
28934;SDS011;16044;52.726;-2.108;2023-03-31T04:19:21;8.55;;;2.53;;
28934;SDS011;16044;52.726;-2.108;2023-03-31T04:21:51;10.65;;;2.88;;
28934;SDS011;16044;52.726;-2.108;2023-03-31T04:24:24;8.73;;;2.63;;
28934;SDS011;16044;52.726;-2.108;2023-03-31T04:26:56;8.30;;;2.53;;
28934;SDS011;16044;52.726;-2.108;2023-03-31T04:29:24;11.43;;;2.38;;
28934;SDS011;16044;52.726;-2.108;2023-03-31T04:31:55;10.57;;;2.65;;
28934;SDS011;16044;52.726;-2.108;2023-03-31T04:34:25;13.70;;;2.67;;
28934;SDS011;16044;52.726;-2.108;2023-03-31T04:37:01;8.63;;;2.65;;
28934;SDS011;16044;52.726;-2.108;2023-03-31T04:39:29;9.55;;;2.67;;
28934;SDS011;16044;52.726;-2.108;2023-03-31T04:41:56;9.95;;;2.88;;
28934;SDS011;16044;52.726;-2.108;2023-03-31T04:44:25;8.02;;;2.63;;
28934;SDS011;16044;52.726;-2.108;2023-03-31T04:46:53;10.77;;;2.72;;
28934;SDS011;16044;52.726;-2.108;2023-03-31T04:49:20;9.82;;;2.50;;
28934;SDS011;16044;52.726;-2.108;2023-03-31T04:51:48;8.23;;;2.38;;
28934;SDS011;16044;52.726;-2.108;2023-03-31T04:54:15;6.82;;;2.30;;
28934;SDS011;16044;52.726;-2.108;2023-03-31T04:56:42;9.75;;;2.17;;
28934;SDS011;16044;52.726;-2.108;2023-03-31T04:59:10;8.70;;;2.28;;
28934;SDS011;16044;52.726;-2.108;2023-03-31T05:01:37;10.10;;;2.33;;
28934;SDS011;16044;52.726;-2.108;2023-03-31T05:04:04;9.32;;;2.20;;
28934;SDS011;16044;52.726;-2.108;2023-03-31T05:06:31;7.90;;;2.08;;
28934;SDS011;16044;52.726;-2.108;2023-03-31T05:08:59;9.85;;;2.17;;
28934;SDS011;16044;52.726;-2.108;2023-03-31T05:11:26;7.50;;;2.20;;
28934;SDS011;16044;52.726;-2.108;2023-03-31T05:13:54;9.38;;;2.88;;
28934;SDS011;16044;52.726;-2.108;2023-03-31T05:16:21;9.60;;;2.60;;
28934;SDS011;16044;52.726;-2.108;2023-03-31T05:18:49;8.68;;;2.55;;
28934;SDS011;16044;52.726;-2.108;2023-03-31T05:21:17;11.15;;;2.72;;
28934;SDS011;16044;52.726;-2.108;2023-03-31T05:23:46;9.82;;;2.65;;
28934;SDS011;16044;52.726;-2.108;2023-03-31T05:26:14;8.60;;;2.60;;
28934;SDS011;16044;52.726;-2.108;2023-03-31T05:28:41;9.18;;;2.78;;
28934;SDS011;16044;52.726;-2.108;2023-03-31T05:31:09;10.15;;;2.40;;
28934;SDS011;16044;52.726;-2.108;2023-03-31T05:33:38;10.77;;;2.70;;
28934;SDS011;16044;52.726;-2.108;2023-03-31T05:36:08;11.32;;;3.08;;
28934;SDS011;16044;52.726;-2.108;2023-03-31T05:38:37;11.98;;;3.28;;
28934;SDS011;16044;52.726;-2.108;2023-03-31T05:41:05;14.93;;;3.85;;
28934;SDS011;16044;52.726;-2.108;2023-03-31T05:43:35;17.85;;;4.25;;
28934;SDS011;16044;52.726;-2.108;2023-03-31T05:46:03;17.17;;;3.83;;
28934;SDS011;16044;52.726;-2.108;2023-03-31T05:48:32;15.38;;;3.97;;
28934;SDS011;16044;52.726;-2.108;2023-03-31T05:50:59;16.45;;;3.42;;
28934;SDS011;16044;52.726;-2.108;2023-03-31T05:53:27;15.60;;;3.95;;
28934;SDS011;16044;52.726;-2.108;2023-03-31T05:55:56;17.90;;;4.82;;
28934;SDS011;16044;52.726;-2.108;2023-03-31T05:58:25;18.08;;;4.10;;
28934;SDS011;16044;52.726;-2.108;2023-03-31T06:03:37;19.73;;;4.57;;
28934;SDS011;16044;52.726;-2.108;2023-03-31T06:06:09;25.60;;;4.75;;
28934;SDS011;16044;52.726;-2.108;2023-03-31T06:08:38;21.60;;;4.35;;
28934;SDS011;16044;52.726;-2.108;2023-03-31T06:11:06;20.27;;;4.72;;
28934;SDS011;16044;52.726;-2.108;2023-03-31T06:13:37;21.73;;;4.85;;
28934;SDS011;16044;52.726;-2.108;2023-03-31T06:16:06;19.17;;;3.72;;
28934;SDS011;16044;52.726;-2.108;2023-03-31T06:18:36;20.88;;;4.43;;
28934;SDS011;16044;52.726;-2.108;2023-03-31T06:21:03;21.88;;;4.63;;
28934;SDS011;16044;52.726;-2.108;2023-03-31T06:23:32;26.33;;;4.93;;
28934;SDS011;16044;52.726;-2.108;2023-03-31T06:26:04;25.23;;;4.82;;
28934;SDS011;16044;52.726;-2.108;2023-03-31T06:28:34;29.50;;;4.90;;
28934;SDS011;16044;52.726;-2.108;2023-03-31T06:31:15;25.50;;;4.20;;
28934;SDS011;16044;52.726;-2.108;2023-03-31T06:33:45;27.27;;;4.35;;
28934;SDS011;16044;52.726;-2.108;2023-03-31T06:36:14;27.25;;;5.05;;
28934;SDS011;16044;52.726;-2.108;2023-03-31T06:38:44;30.15;;;4.60;;
28934;SDS011;16044;52.726;-2.108;2023-03-31T06:41:12;24.17;;;4.13;;
28934;SDS011;16044;52.726;-2.108;2023-03-31T06:43:41;27.73;;;4.40;;
28934;SDS011;16044;52.726;-2.108;2023-03-31T06:46:09;21.40;;;3.90;;
28934;SDS011;16044;52.726;-2.108;2023-03-31T06:48:37;30.40;;;4.43;;
28934;SDS011;16044;52.726;-2.108;2023-03-31T06:51:04;24.80;;;4.20;;
28934;SDS011;16044;52.726;-2.108;2023-03-31T06:53:34;22.48;;;4.13;;
28934;SDS011;16044;52.726;-2.108;2023-03-31T06:56:02;18.63;;;3.53;;
28934;SDS011;16044;52.726;-2.108;2023-03-31T06:58:31;24.25;;;4.00;;
28934;SDS011;16044;52.726;-2.108;2023-03-31T07:01:00;20.83;;;4.10;;
28934;SDS011;16044;52.726;-2.108;2023-03-31T07:03:29;25.38;;;5.63;;
28934;SDS011;16044;52.726;-2.108;2023-03-31T07:05:57;23.15;;;4.28;;
28934;SDS011;16044;52.726;-2.108;2023-03-31T07:08:25;24.55;;;4.32;;
28934;SDS011;16044;52.726;-2.108;2023-03-31T07:10:53;20.70;;;4.60;;
28934;SDS011;16044;52.726;-2.108;2023-03-31T07:13:23;25.95;;;4.60;;
28934;SDS011;16044;52.726;-2.108;2023-03-31T07:15:52;18.27;;;3.88;;
28934;SDS011;16044;52.726;-2.108;2023-03-31T07:18:19;21.60;;;4.40;;
28934;SDS011;16044;52.726;-2.108;2023-03-31T07:20:47;21.38;;;4.13;;
28934;SDS011;16044;52.726;-2.108;2023-03-31T07:23:16;16.33;;;3.45;;
28934;SDS011;16044;52.726;-2.108;2023-03-31T07:25:45;16.15;;;3.55;;
28934;SDS011;16044;52.726;-2.108;2023-03-31T07:28:13;19.45;;;3.50;;
28934;SDS011;16044;52.726;-2.108;2023-03-31T07:30:40;17.08;;;3.42;;
28934;SDS011;16044;52.726;-2.108;2023-03-31T07:33:08;13.38;;;3.90;;
28934;SDS011;16044;52.726;-2.108;2023-03-31T07:35:39;18.35;;;5.00;;
28934;SDS011;16044;52.726;-2.108;2023-03-31T07:38:10;21.30;;;6.32;;
28934;SDS011;16044;52.726;-2.108;2023-03-31T07:40:38;18.55;;;7.00;;
28934;SDS011;16044;52.726;-2.108;2023-03-31T07:43:07;22.65;;;8.45;;
28934;SDS011;16044;52.726;-2.108;2023-03-31T07:45:34;17.73;;;8.60;;
28934;SDS011;16044;52.726;-2.108;2023-03-31T07:48:01;19.70;;;9.07;;
28934;SDS011;16044;52.726;-2.108;2023-03-31T07:50:28;22.85;;;9.02;;
28934;SDS011;16044;52.726;-2.108;2023-03-31T07:52:56;16.15;;;9.00;;
28934;SDS011;16044;52.726;-2.108;2023-03-31T07:55:23;16.25;;;8.70;;
28934;SDS011;16044;52.726;-2.108;2023-03-31T07:57:51;18.77;;;9.23;;
28934;SDS011;16044;52.726;-2.108;2023-03-31T08:00:19;20.05;;;9.20;;
28934;SDS011;16044;52.726;-2.108;2023-03-31T08:02:46;19.38;;;10.52;;
28934;SDS011;16044;52.726;-2.108;2023-03-31T08:05:15;17.92;;;9.50;;
28934;SDS011;16044;52.726;-2.108;2023-03-31T08:07:44;16.35;;;9.07;;
28934;SDS011;16044;52.726;-2.108;2023-03-31T08:10:15;16.63;;;8.35;;
28934;SDS011;16044;52.726;-2.108;2023-03-31T08:12:46;13.07;;;6.13;;
28934;SDS011;16044;52.726;-2.108;2023-03-31T08:15:13;10.75;;;5.30;;
28934;SDS011;16044;52.726;-2.108;2023-03-31T08:17:40;12.55;;;5.65;;
28934;SDS011;16044;52.726;-2.108;2023-03-31T08:20:08;11.52;;;5.07;;
28934;SDS011;16044;52.726;-2.108;2023-03-31T08:22:37;14.50;;;5.22;;
28934;SDS011;16044;52.726;-2.108;2023-03-31T08:25:05;10.88;;;3.72;;
28934;SDS011;16044;52.726;-2.108;2023-03-31T08:27:34;10.45;;;3.20;;
28934;SDS011;16044;52.726;-2.108;2023-03-31T08:30:04;6.45;;;2.20;;
28934;SDS011;16044;52.726;-2.108;2023-03-31T08:32:33;10.00;;;2.28;;
28934;SDS011;16044;52.726;-2.108;2023-03-31T08:35:01;10.27;;;1.88;;
28934;SDS011;16044;52.726;-2.108;2023-03-31T08:37:28;8.98;;;1.95;;
28934;SDS011;16044;52.726;-2.108;2023-03-31T08:39:56;6.90;;;1.42;;
28934;SDS011;16044;52.726;-2.108;2023-03-31T08:45:16;10.85;;;1.50;;
28934;SDS011;16044;52.726;-2.108;2023-03-31T08:47:48;10.43;;;1.65;;
28934;SDS011;16044;52.726;-2.108;2023-03-31T08:50:20;8.45;;;1.88;;
28934;SDS011;16044;52.726;-2.108;2023-03-31T09:01:20;8.32;;;2.20;;
28934;SDS011;16044;52.726;-2.108;2023-03-31T09:10:55;7.72;;;2.00;;
28934;SDS011;16044;52.726;-2.108;2023-03-31T09:13:46;7.63;;;2.00;;
28934;SDS011;16044;52.726;-2.108;2023-03-31T09:22:19;8.95;;;1.90;;
28934;SDS011;16044;52.726;-2.108;2023-03-31T09:25:00;6.00;;;1.77;;
28934;SDS011;16044;52.726;-2.108;2023-03-31T09:27:44;4.70;;;1.60;;
28934;SDS011;16044;52.726;-2.108;2023-03-31T09:30:14;6.65;;;1.75;;
28934;SDS011;16044;52.726;-2.108;2023-03-31T09:32:51;6.95;;;1.98;;
28934;SDS011;16044;52.726;-2.108;2023-03-31T09:35:28;6.03;;;1.70;;
28934;SDS011;16044;52.726;-2.108;2023-03-31T09:37:59;5.28;;;1.90;;
28934;SDS011;16044;52.726;-2.108;2023-03-31T09:40:27;8.82;;;2.60;;
28934;SDS011;16044;52.726;-2.108;2023-03-31T09:42:59;8.88;;;2.30;;
28934;SDS011;16044;52.726;-2.108;2023-03-31T09:45:43;5.40;;;2.00;;
28934;SDS011;16044;52.726;-2.108;2023-03-31T09:48:32;9.00;;;2.47;;
28934;SDS011;16044;52.726;-2.108;2023-03-31T09:51:05;7.55;;;2.47;;
28934;SDS011;16044;52.726;-2.108;2023-03-31T09:59:19;8.30;;;3.20;;
28934;SDS011;16044;52.726;-2.108;2023-03-31T10:01:49;8.27;;;3.08;;
28934;SDS011;16044;52.726;-2.108;2023-03-31T10:04:20;8.93;;;3.17;;
28934;SDS011;16044;52.726;-2.108;2023-03-31T10:06:50;7.15;;;2.67;;
28934;SDS011;16044;52.726;-2.108;2023-03-31T10:09:20;6.05;;;2.22;;
28934;SDS011;16044;52.726;-2.108;2023-03-31T10:12:01;6.93;;;2.20;;
28934;SDS011;16044;52.726;-2.108;2023-03-31T10:14:43;6.10;;;2.20;;
28934;SDS011;16044;52.726;-2.108;2023-03-31T10:17:13;6.25;;;2.55;;
28934;SDS011;16044;52.726;-2.108;2023-03-31T10:20:10;5.95;;;2.35;;
28934;SDS011;16044;52.726;-2.108;2023-03-31T10:23:04;6.15;;;1.73;;
28934;SDS011;16044;52.726;-2.108;2023-03-31T10:25:42;4.22;;;1.40;;
28934;SDS011;16044;52.726;-2.108;2023-03-31T10:28:14;2.78;;;1.23;;
28934;SDS011;16044;52.726;-2.108;2023-03-31T10:30:49;3.15;;;1.17;;
28934;SDS011;16044;52.726;-2.108;2023-03-31T10:33:21;4.88;;;1.30;;
28934;SDS011;16044;52.726;-2.108;2023-03-31T10:35:59;4.80;;;1.30;;
28934;SDS011;16044;52.726;-2.108;2023-03-31T10:38:41;4.03;;;1.70;;
28934;SDS011;16044;52.726;-2.108;2023-03-31T10:41:10;4.78;;;1.60;;
28934;SDS011;16044;52.726;-2.108;2023-03-31T10:43:39;5.43;;;1.58;;
28934;SDS011;16044;52.726;-2.108;2023-03-31T10:46:09;5.93;;;1.70;;
28934;SDS011;16044;52.726;-2.108;2023-03-31T10:48:38;4.85;;;1.60;;
28934;SDS011;16044;52.726;-2.108;2023-03-31T10:51:13;6.80;;;2.30;;
28934;SDS011;16044;52.726;-2.108;2023-03-31T10:53:47;6.47;;;2.10;;
28934;SDS011;16044;52.726;-2.108;2023-03-31T11:13:59;13.00;;;4.32;;
28934;SDS011;16044;52.726;-2.108;2023-03-31T11:19:46;7.13;;;3.78;;
28934;SDS011;16044;52.726;-2.108;2023-03-31T11:22:30;8.15;;;3.70;;
28934;SDS011;16044;52.726;-2.108;2023-03-31T11:25:06;6.15;;;3.58;;
28934;SDS011;16044;52.726;-2.108;2023-03-31T11:28:20;10.02;;;4.25;;
28934;SDS011;16044;52.726;-2.108;2023-03-31T11:46:03;4.05;;;2.30;;
28934;SDS011;16044;52.726;-2.108;2023-03-31T11:51:12;4.75;;;2.45;;
28934;SDS011;16044;52.726;-2.108;2023-03-31T11:53:46;5.85;;;2.42;;
28934;SDS011;16044;52.726;-2.108;2023-03-31T11:56:15;4.75;;;2.10;;
28934;SDS011;16044;52.726;-2.108;2023-03-31T11:58:44;3.28;;;1.40;;
28934;SDS011;16044;52.726;-2.108;2023-03-31T12:04:27;4.93;;;0.90;;
28934;SDS011;16044;52.726;-2.108;2023-03-31T12:12:32;3.65;;;1.30;;
28934;SDS011;16044;52.726;-2.108;2023-03-31T12:17:52;3.22;;;2.00;;
28934;SDS011;16044;52.726;-2.108;2023-03-31T12:23:00;4.38;;;2.30;;
28934;SDS011;16044;52.726;-2.108;2023-03-31T12:25:37;4.82;;;2.60;;
28934;SDS011;16044;52.726;-2.108;2023-03-31T12:28:17;5.97;;;2.70;;
28934;SDS011;16044;52.726;-2.108;2023-03-31T12:30:46;4.68;;;2.50;;
28934;SDS011;16044;52.726;-2.108;2023-03-31T12:36:03;5.85;;;3.08;;
28934;SDS011;16044;52.726;-2.108;2023-03-31T12:55:54;3.75;;;2.58;;
28934;SDS011;16044;52.726;-2.108;2023-03-31T13:06:04;5.18;;;3.00;;
28934;SDS011;16044;52.726;-2.108;2023-03-31T13:14:00;5.22;;;3.10;;
28934;SDS011;16044;52.726;-2.108;2023-03-31T13:16:30;7.65;;;3.30;;
28934;SDS011;16044;52.726;-2.108;2023-03-31T13:18:59;6.88;;;3.72;;
28934;SDS011;16044;52.726;-2.108;2023-03-31T13:21:27;6.68;;;3.83;;
28934;SDS011;16044;52.726;-2.108;2023-03-31T13:23:58;4.88;;;3.55;;
28934;SDS011;16044;52.726;-2.108;2023-03-31T13:34:28;4.40;;;2.80;;
28934;SDS011;16044;52.726;-2.108;2023-03-31T13:40:46;3.22;;;1.40;;
28934;SDS011;16044;52.726;-2.108;2023-03-31T13:52:55;2.85;;;1.40;;
28934;SDS011;16044;52.726;-2.108;2023-03-31T14:07:48;1.77;;;1.00;;
28934;SDS011;16044;52.726;-2.108;2023-03-31T14:15:43;2.20;;;1.20;;
28934;SDS011;16044;52.726;-2.108;2023-03-31T14:18:25;2.05;;;0.65;;
28934;SDS011;16044;52.726;-2.108;2023-03-31T14:27:59;2.55;;;0.98;;
28934;SDS011;16044;52.726;-2.108;2023-03-31T14:30:58;1.27;;;0.70;;
28934;SDS011;16044;52.726;-2.108;2023-03-31T14:39:31;2.05;;;0.60;;
28934;SDS011;16044;52.726;-2.108;2023-03-31T14:42:13;3.30;;;0.60;;
28934;SDS011;16044;52.726;-2.108;2023-03-31T14:44:43;4.65;;;3.00;;
28934;SDS011;16044;52.726;-2.108;2023-03-31T14:47:14;2.83;;;1.90;;
28934;SDS011;16044;52.726;-2.108;2023-03-31T14:49:47;5.95;;;2.80;;
28934;SDS011;16044;52.726;-2.108;2023-03-31T14:52:28;3.25;;;2.50;;
28934;SDS011;16044;52.726;-2.108;2023-03-31T14:54:58;5.25;;;2.47;;
28934;SDS011;16044;52.726;-2.108;2023-03-31T14:57:27;3.83;;;2.85;;
28934;SDS011;16044;52.726;-2.108;2023-03-31T15:00:05;2.28;;;1.48;;
28934;SDS011;16044;52.726;-2.108;2023-03-31T15:02:42;2.90;;;1.23;;
28934;SDS011;16044;52.726;-2.108;2023-03-31T15:08:06;4.07;;;1.40;;
28934;SDS011;16044;52.726;-2.108;2023-03-31T15:10:39;2.88;;;0.82;;
28934;SDS011;16044;52.726;-2.108;2023-03-31T15:13:16;2.13;;;0.77;;
28934;SDS011;16044;52.726;-2.108;2023-03-31T15:15:55;3.85;;;0.95;;
28934;SDS011;16044;52.726;-2.108;2023-03-31T15:18:24;3.30;;;1.10;;
28934;SDS011;16044;52.726;-2.108;2023-03-31T15:20:52;4.30;;;1.27;;
28934;SDS011;16044;52.726;-2.108;2023-03-31T15:23:23;5.57;;;1.30;;
28934;SDS011;16044;52.726;-2.108;2023-03-31T15:26:13;4.65;;;1.30;;
28934;SDS011;16044;52.726;-2.108;2023-03-31T15:28:54;4.90;;;1.60;;
28934;SDS011;16044;52.726;-2.108;2023-03-31T15:31:54;3.70;;;1.85;;
28934;SDS011;16044;52.726;-2.108;2023-03-31T15:34:28;7.38;;;1.92;;
28934;SDS011;16044;52.726;-2.108;2023-03-31T15:37:02;3.35;;;1.60;;
28934;SDS011;16044;52.726;-2.108;2023-03-31T15:39:33;4.68;;;1.70;;
28934;SDS011;16044;52.726;-2.108;2023-03-31T15:42:03;4.38;;;1.90;;
28934;SDS011;16044;52.726;-2.108;2023-03-31T15:47:15;2.63;;;1.08;;
28934;SDS011;16044;52.726;-2.108;2023-03-31T15:49:56;3.30;;;1.20;;
28934;SDS011;16044;52.726;-2.108;2023-03-31T15:52:45;3.25;;;1.10;;
28934;SDS011;16044;52.726;-2.108;2023-03-31T15:57:49;3.17;;;1.27;;
28934;SDS011;16044;52.726;-2.108;2023-03-31T16:03:19;3.50;;;1.30;;
28934;SDS011;16044;52.726;-2.108;2023-03-31T16:05:54;3.58;;;1.13;;
28934;SDS011;16044;52.726;-2.108;2023-03-31T16:08:29;2.92;;;1.20;;
28934;SDS011;16044;52.726;-2.108;2023-03-31T16:11:11;4.20;;;1.55;;
28934;SDS011;16044;52.726;-2.108;2023-03-31T16:13:58;6.47;;;1.80;;
28934;SDS011;16044;52.726;-2.108;2023-03-31T16:16:33;6.45;;;2.17;;
28934;SDS011;16044;52.726;-2.108;2023-03-31T16:19:04;4.07;;;1.75;;
28934;SDS011;16044;52.726;-2.108;2023-03-31T16:21:43;4.00;;;1.42;;
28934;SDS011;16044;52.726;-2.108;2023-03-31T16:24:18;3.35;;;1.40;;
28934;SDS011;16044;52.726;-2.108;2023-03-31T16:26:47;2.72;;;1.00;;
28934;SDS011;16044;52.726;-2.108;2023-03-31T16:29:20;2.00;;;0.77;;
28934;SDS011;16044;52.726;-2.108;2023-03-31T16:31:48;1.50;;;0.57;;
28934;SDS011;16044;52.726;-2.108;2023-03-31T16:34:15;2.42;;;0.80;;
28934;SDS011;16044;52.726;-2.108;2023-03-31T16:36:42;2.35;;;1.00;;
28934;SDS011;16044;52.726;-2.108;2023-03-31T16:39:09;2.63;;;1.00;;
28934;SDS011;16044;52.726;-2.108;2023-03-31T16:41:36;2.63;;;1.00;;
28934;SDS011;16044;52.726;-2.108;2023-03-31T16:44:04;3.30;;;1.10;;
28934;SDS011;16044;52.726;-2.108;2023-03-31T16:46:31;2.53;;;1.08;;
28934;SDS011;16044;52.726;-2.108;2023-03-31T16:48:58;1.77;;;0.90;;
28934;SDS011;16044;52.726;-2.108;2023-03-31T16:51:26;3.45;;;1.20;;
28934;SDS011;16044;52.726;-2.108;2023-03-31T16:53:53;3.70;;;1.40;;
28934;SDS011;16044;52.726;-2.108;2023-03-31T16:56:24;2.97;;;1.10;;
28934;SDS011;16044;52.726;-2.108;2023-03-31T16:58:51;2.10;;;1.15;;
28934;SDS011;16044;52.726;-2.108;2023-03-31T17:01:19;3.13;;;1.10;;
28934;SDS011;16044;52.726;-2.108;2023-03-31T17:03:46;1.80;;;0.90;;
28934;SDS011;16044;52.726;-2.108;2023-03-31T17:06:14;2.10;;;0.93;;
28934;SDS011;16044;52.726;-2.108;2023-03-31T17:08:41;2.95;;;0.93;;
28934;SDS011;16044;52.726;-2.108;2023-03-31T17:11:09;5.13;;;0.90;;
28934;SDS011;16044;52.726;-2.108;2023-03-31T17:13:38;3.28;;;0.98;;
28934;SDS011;16044;52.726;-2.108;2023-03-31T17:16:07;1.92;;;0.93;;
28934;SDS011;16044;52.726;-2.108;2023-03-31T17:18:47;2.25;;;0.90;;
28934;SDS011;16044;52.726;-2.108;2023-03-31T17:21:15;2.55;;;0.98;;
28934;SDS011;16044;52.726;-2.108;2023-03-31T17:23:45;3.90;;;0.90;;
28934;SDS011;16044;52.726;-2.108;2023-03-31T17:26:13;3.10;;;1.17;;
28934;SDS011;16044;52.726;-2.108;2023-03-31T17:28:42;2.42;;;1.13;;
28934;SDS011;16044;52.726;-2.108;2023-03-31T17:31:13;2.85;;;1.20;;
28934;SDS011;16044;52.726;-2.108;2023-03-31T17:33:45;3.15;;;1.23;;
28934;SDS011;16044;52.726;-2.108;2023-03-31T17:36:13;2.72;;;1.20;;
28934;SDS011;16044;52.726;-2.108;2023-03-31T17:38:41;3.10;;;1.40;;
28934;SDS011;16044;52.726;-2.108;2023-03-31T17:41:09;3.25;;;1.38;;
28934;SDS011;16044;52.726;-2.108;2023-03-31T17:43:38;3.47;;;1.38;;
28934;SDS011;16044;52.726;-2.108;2023-03-31T17:46:06;2.45;;;1.38;;
28934;SDS011;16044;52.726;-2.108;2023-03-31T17:48:39;3.58;;;1.40;;
28934;SDS011;16044;52.726;-2.108;2023-03-31T17:51:11;3.53;;;1.60;;
28934;SDS011;16044;52.726;-2.108;2023-03-31T17:53:41;4.40;;;1.65;;
28934;SDS011;16044;52.726;-2.108;2023-03-31T17:56:11;4.82;;;1.70;;
28934;SDS011;16044;52.726;-2.108;2023-03-31T17:58:39;3.70;;;1.80;;
28934;SDS011;16044;52.726;-2.108;2023-03-31T18:01:07;4.22;;;1.92;;
28934;SDS011;16044;52.726;-2.108;2023-03-31T18:03:39;6.53;;;2.00;;
28934;SDS011;16044;52.726;-2.108;2023-03-31T18:06:07;3.05;;;1.75;;
28934;SDS011;16044;52.726;-2.108;2023-03-31T18:08:37;7.13;;;2.53;;
28934;SDS011;16044;52.726;-2.108;2023-03-31T18:11:05;4.10;;;2.13;;
28934;SDS011;16044;52.726;-2.108;2023-03-31T18:13:34;5.63;;;2.40;;
28934;SDS011;16044;52.726;-2.108;2023-03-31T18:16:02;6.65;;;2.40;;
28934;SDS011;16044;52.726;-2.108;2023-03-31T18:18:30;5.97;;;2.50;;
28934;SDS011;16044;52.726;-2.108;2023-03-31T18:21:01;6.35;;;2.53;;
28934;SDS011;16044;52.726;-2.108;2023-03-31T18:23:30;5.75;;;2.60;;
28934;SDS011;16044;52.726;-2.108;2023-03-31T18:25:57;4.90;;;2.45;;
28934;SDS011;16044;52.726;-2.108;2023-03-31T18:28:25;3.47;;;2.10;;
28934;SDS011;16044;52.726;-2.108;2023-03-31T18:30:52;4.07;;;2.28;;
28934;SDS011;16044;52.726;-2.108;2023-03-31T18:33:19;4.38;;;2.22;;
28934;SDS011;16044;52.726;-2.108;2023-03-31T18:35:47;4.32;;;2.50;;
28934;SDS011;16044;52.726;-2.108;2023-03-31T18:38:15;5.80;;;2.58;;
28934;SDS011;16044;52.726;-2.108;2023-03-31T18:40:50;6.70;;;2.40;;
28934;SDS011;16044;52.726;-2.108;2023-03-31T18:43:18;3.63;;;2.25;;
28934;SDS011;16044;52.726;-2.108;2023-03-31T18:45:50;7.55;;;2.70;;
28934;SDS011;16044;52.726;-2.108;2023-03-31T18:48:20;3.83;;;2.70;;